Time;durP1;ratioP1;P1;durP2;ratioP2;P2;SDS_P1;SDS_P2;PMS_P1;PMS_P2;Temp;Humidity;BMP_temperature;BMP_pressure;BME280_temperature;BME280_humidity;BME280_pressure;Samples;Min_cycle;Max_cycle;Signal;HPM_P1;HPM_P2
2023/08/13 00:00:28;;;;;;;3.67;2.28;;;26.10;99.90;;;;;;5052884;28;20239;-78
2023/08/13 00:02:55;;;;;;;3.03;2.67;;;26.20;99.90;;;;;;5052421;28;20253;-78
2023/08/13 00:05:22;;;;;;;1.77;1.67;;;26.20;99.90;;;;;;5052488;28;20261;-77
2023/08/13 00:07:50;;;;;;;2.90;2.33;;;26.20;99.90;;;;;;5052632;28;20242;-78
2023/08/13 00:10:17;;;;;;;2.92;2.67;;;26.10;99.90;;;;;;5052632;28;20239;-76
2023/08/13 00:12:44;;;;;;;4.70;2.78;;;26.00;99.90;;;;;;5053030;28;20238;-76
2023/08/13 00:15:11;;;;;;;2.85;2.15;;;25.90;99.90;;;;;;5052479;28;20249;-76
2023/08/13 00:17:38;;;;;;;2.60;2.05;;;26.00;99.90;;;;;;5052533;28;20230;-76
2023/08/13 00:20:07;;;;;;;2.95;2.65;;;26.00;99.90;;;;;;5052122;28;20234;-74
2023/08/13 00:22:34;;;;;;;2.30;2.10;;;26.00;99.90;;;;;;5052547;28;20613;-74
2023/08/13 00:25:02;;;;;;;2.17;1.98;;;26.00;99.90;;;;;;5051969;28;20274;-74
2023/08/13 00:27:29;;;;;;;2.42;2.22;;;25.90;99.90;;;;;;5066542;28;20237;-74
2023/08/13 00:29:56;;;;;;;3.58;2.30;;;25.90;99.90;;;;;;5051776;28;20242;-74
2023/08/13 00:32:23;;;;;;;3.55;2.22;;;25.90;99.90;;;;;;5052027;28;20257;-74
2023/08/13 00:34:50;;;;;;;4.18;2.22;;;25.90;99.90;;;;;;5052276;28;20239;-75
2023/08/13 00:37:17;;;;;;;2.55;2.35;;;25.90;99.90;;;;;;5052235;28;20246;-74
2023/08/13 00:39:44;;;;;;;2.63;1.92;;;25.90;99.90;;;;;;5052408;28;20295;-75
2023/08/13 00:42:12;;;;;;;2.38;2.17;;;25.90;99.90;;;;;;5051939;28;20211;-73
2023/08/13 00:44:39;;;;;;;2.47;2.33;;;25.90;99.90;;;;;;5051659;28;20272;-72
2023/08/13 00:47:06;;;;;;;1.77;1.63;;;25.80;99.90;;;;;;5051658;28;20261;-73
2023/08/13 00:49:34;;;;;;;2.22;1.90;;;25.70;99.90;;;;;;5051979;28;20693;-74
2023/08/13 00:52:01;;;;;;;2.63;1.92;;;25.70;99.90;;;;;;5037976;28;20592;-74
2023/08/13 00:54:29;;;;;;;6.03;2.70;;;25.70;99.90;;;;;;5052121;28;20256;-75
2023/08/13 00:56:56;;;;;;;3.13;2.30;;;25.70;99.90;;;;;;5051343;28;20238;-75
2023/08/13 00:59:25;;;;;;;3.67;2.45;;;25.70;99.90;;;;;;5051526;28;20249;-75
2023/08/13 01:01:51;;;;;;;3.67;2.00;;;25.70;99.90;;;;;;5051341;28;20615;-75
2023/08/13 01:04:18;;;;;;;2.10;1.95;;;25.70;99.90;;;;;;5051894;28;20340;-75
2023/08/13 01:06:54;;;;;;;2.53;2.30;;;25.80;99.90;;;;;;5051627;28;20637;-74
2023/08/13 01:09:32;;;;;;;2.42;2.08;;;25.70;99.90;;;;;;5051300;28;20211;-75
2023/08/13 01:12:05;;;;;;;2.95;1.98;;;25.60;99.90;;;;;;5050643;28;20245;-74
2023/08/13 01:14:41;;;;;;;2.72;2.05;;;25.60;99.90;;;;;;5051371;28;20203;-73
2023/08/13 01:17:11;;;;;;;2.40;2.28;;;25.50;99.90;;;;;;5050942;28;20212;-73
2023/08/13 01:19:38;;;;;;;2.88;2.42;;;25.40;99.90;;;;;;5051381;28;20651;-73
2023/08/13 01:22:05;;;;;;;2.38;2.13;;;25.50;99.90;;;;;;5051052;28;20626;-74
2023/08/13 01:24:33;;;;;;;2.70;2.25;;;25.40;99.90;;;;;;5051165;28;20276;-74
2023/08/13 01:27:22;;;;;;;2.45;2.17;;;25.50;99.90;;;;;;5050787;28;20211;-74
2023/08/13 01:29:55;;;;;;;3.22;1.83;;;25.50;99.90;;;;;;5050890;28;20213;-75
2023/08/13 01:32:30;;;;;;;3.03;2.50;;;25.50;99.90;;;;;;5050887;28;20253;-75
2023/08/13 01:34:58;;;;;;;2.28;2.10;;;25.40;99.90;;;;;;5050717;28;20700;-75
2023/08/13 01:37:25;;;;;;;2.60;2.38;;;25.40;99.90;;;;;;5051060;28;20280;-75
2023/08/13 01:39:53;;;;;;;2.30;2.10;;;25.40;99.90;;;;;;5050665;28;20276;-75
2023/08/13 01:42:20;;;;;;;2.35;2.15;;;25.40;99.90;;;;;;5050849;28;20241;-74
2023/08/13 01:44:47;;;;;;;2.60;1.90;;;25.40;99.90;;;;;;5050489;28;20277;-74
2023/08/13 01:47:14;;;;;;;2.70;2.10;;;25.40;99.90;;;;;;5050969;28;20241;-73
2023/08/13 01:49:41;;;;;;;2.72;1.73;;;25.40;99.90;;;;;;5051307;28;20206;-75
2023/08/13 01:52:08;;;;;;;2.35;2.15;;;25.40;99.90;;;;;;5050474;28;20253;-74
2023/08/13 01:54:35;;;;;;;3.30;2.50;;;25.30;99.90;;;;;;5051023;28;20211;-75
2023/08/13 01:57:03;;;;;;;3.85;2.15;;;25.40;99.90;;;;;;5050158;28;20345;-75
2023/08/13 01:59:30;;;;;;;2.78;2.55;;;25.40;99.90;;;;;;5050603;28;20682;-75
2023/08/13 02:01:57;;;;;;;2.13;2.03;;;25.30;99.90;;;;;;5049949;28;20238;-75
2023/08/13 02:04:24;;;;;;;2.28;1.90;;;25.30;99.90;;;;;;5050757;28;20238;-75
2023/08/13 02:06:50;;;;;;;2.03;1.88;;;25.30;99.90;;;;;;5050233;28;20250;-74
2023/08/13 02:09:17;;;;;;;3.78;1.95;;;25.30;99.90;;;;;;5050493;28;20211;-74
2023/08/13 02:11:44;;;;;;;2.05;1.83;;;25.20;99.90;;;;;;5050248;28;20653;-75
2023/08/13 02:14:12;;;;;;;2.63;2.42;;;25.20;99.90;;;;;;5050516;28;20248;-74
2023/08/13 02:16:39;;;;;;;2.13;1.98;;;25.20;99.90;;;;;;5050770;28;20207;-73
2023/08/13 02:19:06;;;;;;;3.67;1.85;;;25.10;99.90;;;;;;5048535;28;20239;-75
2023/08/13 02:21:33;;;;;;;3.20;1.80;;;25.10;99.90;;;;;;5050053;28;20238;-74
2023/08/13 02:24:00;;;;;;;2.58;2.38;;;25.20;99.90;;;;;;5049750;28;20261;-77
2023/08/13 02:26:27;;;;;;;2.58;2.13;;;25.20;99.90;;;;;;5050030;28;20256;-75
2023/08/13 02:28:54;;;;;;;2.17;2.03;;;25.10;99.90;;;;;;5049878;28;20230;-76
2023/08/13 02:31:22;;;;;;;2.47;2.28;;;25.10;99.90;;;;;;5050315;28;20249;-75
2023/08/13 02:33:49;;;;;;;2.03;1.85;;;25.10;99.90;;;;;;5049737;28;20652;-75
2023/08/13 02:36:16;;;;;;;2.17;2.00;;;25.00;99.90;;;;;;5050456;28;20239;-75
2023/08/13 02:38:43;;;;;;;4.35;2.42;;;25.10;99.90;;;;;;5050572;28;20238;-75
2023/08/13 02:41:10;;;;;;;2.05;1.85;;;25.00;99.90;;;;;;5050227;28;20243;-75
2023/08/13 02:43:51;;;;;;;1.92;1.83;;;25.10;99.90;;;;;;5050089;28;20203;-73
2023/08/13 02:46:18;;;;;;;2.50;2.30;;;25.00;99.90;;;;;;5050413;28;20238;-77
2023/08/13 02:48:46;;;;;;;1.63;1.52;;;24.90;99.90;;;;;;5049935;28;20203;-76
2023/08/13 02:51:13;;;;;;;4.82;1.80;;;25.00;99.90;;;;;;5050518;28;20238;-75
2023/08/13 02:53:42;;;;;;;2.75;2.00;;;25.00;99.90;;;;;;5049766;28;20250;-75
2023/08/13 02:56:09;;;;;;;1.90;1.70;;;25.00;99.90;;;;;;5050044;28;20213;-74
2023/08/13 02:58:36;;;;;;;3.00;2.08;;;25.00;99.90;;;;;;5050120;28;20246;-75
2023/08/13 03:01:03;;;;;;;1.75;1.60;;;24.90;99.90;;;;;;5036204;28;20238;-76
2023/08/13 03:03:30;;;;;;;1.90;1.80;;;24.90;99.90;;;;;;5050312;28;20246;-74
2023/08/13 03:05:59;;;;;;;1.70;1.60;;;24.90;99.90;;;;;;5049488;28;20684;-74
2023/08/13 03:08:26;;;;;;;1.83;1.60;;;24.90;99.90;;;;;;5049800;28;20238;-74
2023/08/13 03:10:53;;;;;;;2.92;1.83;;;24.80;99.90;;;;;;5049348;28;20261;-74
2023/08/13 03:13:19;;;;;;;2.20;1.73;;;24.70;99.90;;;;;;5050240;28;20238;-74
2023/08/13 03:15:46;;;;;;;4.05;1.42;;;24.70;99.90;;;;;;5050194;28;20215;-74
2023/08/13 03:18:14;;;;;;;1.50;1.40;;;24.60;99.90;;;;;;5050235;28;20577;-73
2023/08/13 03:20:41;;;;;;;2.03;1.50;;;24.70;99.90;;;;;;5050178;28;20241;-73
2023/08/13 03:23:09;;;;;;;2.47;1.65;;;24.70;99.90;;;;;;5049052;28;20250;-74
2023/08/13 03:25:36;;;;;;;1.42;1.30;;;24.80;99.90;;;;;;5049892;28;20273;-74
2023/08/13 03:28:03;;;;;;;1.63;1.52;;;24.70;99.90;;;;;;5049149;28;20245;-74
2023/08/13 03:30:30;;;;;;;1.88;1.70;;;24.70;99.90;;;;;;5049906;28;20242;-73
2023/08/13 03:32:57;;;;;;;1.52;1.33;;;24.60;99.90;;;;;;5052688;28;20250;-73
2023/08/13 03:35:24;;;;;;;1.40;1.30;;;24.70;99.90;;;;;;5053345;28;20678;-73
2023/08/13 03:37:51;;;;;;;1.63;1.52;;;24.60;99.90;;;;;;5052678;28;20311;-74
2023/08/13 03:40:19;;;;;;;2.03;1.90;;;24.70;99.90;;;;;;5053534;28;20242;-73
2023/08/13 03:42:46;;;;;;;1.73;1.63;;;24.70;99.90;;;;;;5053268;28;20247;-73
2023/08/13 03:45:13;;;;;;;1.52;1.42;;;24.60;99.90;;;;;;5053461;28;20270;-74
2023/08/13 03:47:40;;;;;;;2.13;1.85;;;24.60;99.90;;;;;;5053585;28;20234;-74
2023/08/13 03:50:07;;;;;;;2.08;1.77;;;24.60;99.90;;;;;;5052431;28;20246;-77
2023/08/13 03:52:34;;;;;;;3.67;1.33;;;24.60;99.90;;;;;;5052848;28;20246;-74
2023/08/13 03:55:01;;;;;;;1.77;1.63;;;24.60;99.90;;;;;;5052581;28;20651;-74
2023/08/13 03:57:29;;;;;;;1.65;1.55;;;24.50;99.90;;;;;;5053181;28;20242;-74
2023/08/13 03:59:56;;;;;;;1.70;1.38;;;24.40;99.90;;;;;;5052847;28;20239;-75
2023/08/13 04:02:23;;;;;;;2.08;1.73;;;24.40;99.90;;;;;;5038986;28;20211;-76
2023/08/13 04:04:50;;;;;;;1.40;1.30;;;24.30;99.90;;;;;;5052284;28;20255;-75
2023/08/13 04:07:17;;;;;;;1.00;0.98;;;24.40;99.90;;;;;;5052579;28;20285;-75
2023/08/13 04:09:44;;;;;;;1.80;1.55;;;24.30;99.90;;;;;;5052997;28;20238;-75
2023/08/13 04:12:11;;;;;;;1.73;1.17;;;24.40;99.90;;;;;;5052506;28;20249;-75
2023/08/13 04:14:39;;;;;;;1.02;1.02;;;24.30;99.90;;;;;;5052711;28;20211;-75
2023/08/13 04:17:06;;;;;;;1.52;1.13;;;24.30;99.90;;;;;;5051916;28;20261;-73
2023/08/13 04:19:33;;;;;;;1.45;1.35;;;24.30;99.90;;;;;;5052551;28;20210;-76
2023/08/13 04:22:00;;;;;;;1.20;1.10;;;24.30;99.90;;;;;;5052115;28;20203;-75
2023/08/13 04:24:26;;;;;;;1.90;1.48;;;24.20;99.90;;;;;;5052335;28;20235;-75
2023/08/13 04:26:53;;;;;;;2.72;1.17;;;24.20;99.90;;;;;;5051874;28;20720;-74
2023/08/13 04:29:20;;;;;;;1.15;1.00;;;24.20;99.90;;;;;;5052308;28;20696;-75
2023/08/13 04:31:49;;;;;;;1.30;1.20;;;24.20;99.90;;;;;;5040407;28;20248;-74
2023/08/13 04:34:16;;;;;;;1.38;1.38;;;24.20;99.90;;;;;;5052226;28;20238;-74
2023/08/13 04:36:43;;;;;;;1.98;1.17;;;24.10;99.90;;;;;;5052175;28;20257;-75
2023/08/13 04:39:10;;;;;;;1.20;1.10;;;24.00;99.90;;;;;;5052342;28;20210;-75
2023/08/13 04:41:37;;;;;;;1.60;1.15;;;24.00;99.90;;;;;;5052264;28;20207;-72
2023/08/13 04:44:05;;;;;;;1.27;1.20;;;23.80;99.90;;;;;;5050780;28;20219;-73
2023/08/13 04:46:33;;;;;;;1.15;0.90;;;23.80;99.90;;;;;;5051660;28;20248;-76
2023/08/13 04:49:01;;;;;;;1.73;1.63;;;23.80;99.90;;;;;;5049017;28;20199;-74
2023/08/13 04:51:28;;;;;;;1.45;1.27;;;23.80;99.90;;;;;;5051383;28;20242;-74
2023/08/13 04:53:55;;;;;;;2.10;1.38;;;23.70;99.90;;;;;;5049204;28;20658;-74
2023/08/13 04:56:22;;;;;;;1.50;1.40;;;23.70;99.90;;;;;;5043819;28;20293;-76
2023/08/13 04:58:49;;;;;;;1.00;1.00;;;23.70;99.90;;;;;;5050009;28;20234;-76
2023/08/13 05:01:15;;;;;;;1.42;1.25;;;23.70;99.90;;;;;;5050955;28;20301;-76
2023/08/13 05:03:44;;;;;;;1.58;1.17;;;23.70;99.90;;;;;;5051990;28;20659;-76
2023/08/13 05:06:13;;;;;;;1.45;1.13;;;23.70;99.90;;;;;;5051267;28;20241;-76
2023/08/13 05:08:40;;;;;;;1.52;0.95;;;23.70;99.90;;;;;;5051501;28;20286;-76
2023/08/13 05:11:07;;;;;;;1.40;1.30;;;23.90;99.90;;;;;;5050675;28;20252;-75
2023/08/13 05:13:35;;;;;;;1.25;1.10;;;23.90;99.90;;;;;;5048968;28;20356;-72
2023/08/13 05:16:02;;;;;;;1.00;1.00;;;23.90;99.90;;;;;;5047763;28;20198;-73
2023/08/13 05:18:30;;;;;;;1.25;1.15;;;23.90;99.90;;;;;;5051721;28;20241;-73
2023/08/13 05:20:57;;;;;;;2.15;1.00;;;24.00;99.90;;;;;;5050670;28;20703;-74
2023/08/13 05:23:25;;;;;;;1.55;1.45;;;24.00;99.90;;;;;;5051218;28;20241;-73
2023/08/13 05:25:53;;;;;;;1.83;1.23;;;24.10;99.90;;;;;;5050622;28;20610;-75
2023/08/13 05:28:23;;;;;;;1.33;1.23;;;24.10;99.90;;;;;;5050960;28;20294;-72
2023/08/13 05:30:50;;;;;;;1.20;1.08;;;24.10;99.90;;;;;;5051144;28;20241;-74
2023/08/13 05:33:17;;;;;;;0.85;0.70;;;24.00;99.90;;;;;;5050482;28;20242;-75
2023/08/13 05:35:45;;;;;;;1.20;0.70;;;24.00;99.90;;;;;;5051202;28;20207;-73
2023/08/13 05:38:12;;;;;;;1.23;0.80;;;24.10;99.90;;;;;;5050913;28;20210;-74
2023/08/13 05:40:41;;;;;;;1.75;1.00;;;24.10;99.90;;;;;;5051353;28;20268;-72
2023/08/13 05:43:08;;;;;;;1.17;1.00;;;24.20;99.90;;;;;;5050452;28;20242;-74
2023/08/13 05:45:34;;;;;;;1.00;0.77;;;24.30;99.90;;;;;;5051379;28;20323;-74
2023/08/13 05:48:01;;;;;;;0.90;0.88;;;24.30;99.90;;;;;;5049898;28;20235;-72
2023/08/13 05:50:29;;;;;;;1.20;1.10;;;24.40;99.90;;;;;;5045973;28;20667;-72
2023/08/13 05:52:56;;;;;;;1.30;1.15;;;24.40;99.90;;;;;;5050173;28;20206;-74
2023/08/13 05:55:23;;;;;;;2.85;1.52;;;24.40;99.90;;;;;;5049556;28;20284;-73
2023/08/13 05:57:51;;;;;;;0.90;0.90;;;24.40;99.90;;;;;;5050328;28;20203;-73
2023/08/13 06:00:19;;;;;;;0.75;0.75;;;24.40;99.90;;;;;;5050516;28;20207;-74
2023/08/13 06:02:46;;;;;;;1.05;0.95;;;24.30;99.90;;;;;;5050206;28;20670;-73
2023/08/13 06:05:13;;;;;;;1.48;1.10;;;24.10;99.90;;;;;;5050740;28;20206;-74
2023/08/13 06:07:40;;;;;;;3.20;1.13;;;24.10;99.90;;;;;;5050677;28;20269;-73
2023/08/13 06:10:07;;;;;;;0.88;0.88;;;24.10;99.90;;;;;;5050244;28;20217;-75
2023/08/13 06:12:35;;;;;;;1.65;0.80;;;24.30;99.90;;;;;;5050895;28;20253;-75
2023/08/13 06:15:04;;;;;;;1.52;1.40;;;24.30;99.90;;;;;;5049769;28;20260;-75
2023/08/13 06:17:31;;;;;;;1.17;0.82;;;24.30;99.90;;;;;;5050084;28;20207;-74
2023/08/13 06:20:00;;;;;;;1.00;0.90;;;24.40;99.90;;;;;;5049770;28;20230;-72
2023/08/13 06:22:27;;;;;;;1.73;0.80;;;24.40;99.90;;;;;;5050025;28;20207;-75
2023/08/13 06:24:54;;;;;;;1.83;0.57;;;24.50;99.90;;;;;;5049651;28;20662;-75
2023/08/13 06:27:22;;;;;;;1.70;1.00;;;24.60;99.90;;;;;;5050352;28;20280;-75
2023/08/13 06:29:48;;;;;;;0.90;0.88;;;24.60;99.90;;;;;;5050020;28;20203;-75
2023/08/13 06:32:17;;;;;;;2.70;0.95;;;24.60;99.90;;;;;;5049955;28;20246;-75
2023/08/13 06:34:44;;;;;;;2.80;1.30;;;24.60;99.90;;;;;;5050154;28;20292;-75
2023/08/13 06:37:10;;;;;;;1.00;0.65;;;24.60;99.90;;;;;;5050043;28;20253;-75
2023/08/13 06:39:38;;;;;;;1.20;1.10;;;24.60;99.90;;;;;;5049959;28;20673;-75
2023/08/13 06:42:05;;;;;;;1.00;0.90;;;24.70;99.90;;;;;;5049766;28;20387;-75
2023/08/13 06:44:32;;;;;;;0.93;0.93;;;24.70;99.90;;;;;;5050206;28;20285;-75
2023/08/13 06:46:59;;;;;;;2.10;1.08;;;24.80;99.90;;;;;;5049319;28;20277;-78
2023/08/13 06:49:27;;;;;;;2.30;0.90;;;24.80;99.90;;;;;;5048498;28;20246;-76
2023/08/13 06:51:54;;;;;;;1.45;1.02;;;24.90;99.90;;;;;;5046024;28;20235;-82
2023/08/13 06:54:21;;;;;;;2.10;0.63;;;25.00;99.90;;;;;;5041999;28;20206;-85
2023/08/13 06:56:48;;;;;;;1.73;1.10;;;24.90;99.90;;;;;;5049496;28;20210;-78
2023/08/13 06:59:15;;;;;;;1.45;0.90;;;24.90;99.90;;;;;;5049758;28;20264;-78
2023/08/13 07:01:42;;;;;;;1.20;1.10;;;24.90;99.90;;;;;;5049396;28;20206;-79
2023/08/13 07:04:09;;;;;;;0.95;0.90;;;24.90;99.90;;;;;;5049787;28;20217;-78
2023/08/13 07:06:37;;;;;;;1.88;0.93;;;24.90;99.90;;;;;;5051434;28;20234;-80
2023/08/13 07:09:04;;;;;;;1.83;1.27;;;24.90;99.90;;;;;;5053478;28;20211;-78
2023/08/13 07:11:32;;;;;;;1.15;1.10;;;25.00;99.90;;;;;;5054195;28;20210;-78
2023/08/13 07:13:59;;;;;;;2.47;0.82;;;25.10;99.90;;;;;;5053323;28;20203;-78
2023/08/13 07:16:26;;;;;;;1.10;1.00;;;25.30;99.90;;;;;;5053448;28;20207;-78
2023/08/13 07:18:53;;;;;;;3.55;1.80;;;25.40;99.90;;;;;;5053034;28;20206;-78
2023/08/13 07:21:20;;;;;;;1.60;1.08;;;25.50;99.90;;;;;;5054073;28;20286;-78
2023/08/13 07:23:49;;;;;;;2.15;1.80;;;25.70;99.90;;;;;;5053023;28;20211;-76
2023/08/13 07:26:16;;;;;;;2.33;1.08;;;25.80;99.90;;;;;;5053524;28;20273;-80
2023/08/13 07:28:44;;;;;;;2.65;1.20;;;25.90;99.90;;;;;;5053870;28;20694;-76
2023/08/13 07:31:11;;;;;;;3.25;1.67;;;25.60;99.90;;;;;;5050700;28;20673;-74
2023/08/13 07:33:38;;;;;;;1.83;1.02;;;25.50;99.90;;;;;;5052925;28;20211;-74
2023/08/13 07:36:05;;;;;;;4.20;1.40;;;25.60;99.90;;;;;;5052958;28;20268;-74
2023/08/13 07:38:33;;;;;;;1.55;1.17;;;25.80;99.90;;;;;;5047932;28;20277;-75
2023/08/13 07:41:03;;;;;;;1.95;1.15;;;26.10;99.90;;;;;;5052082;28;20728;-77
2023/08/13 07:43:30;;;;;;;2.42;1.10;;;26.40;99.90;;;;;;5050969;28;20231;-76
2023/08/13 07:45:57;;;;;;;1.30;1.20;;;26.50;99.90;;;;;;5047791;28;20316;-76
2023/08/13 07:48:24;;;;;;;1.17;0.93;;;26.60;99.90;;;;;;5053390;28;20268;-76
2023/08/13 07:50:52;;;;;;;4.05;1.33;;;26.60;99.90;;;;;;5059673;28;20283;-76
2023/08/13 07:53:19;;;;;;;1.33;1.13;;;26.40;99.90;;;;;;5056752;28;20242;-74
2023/08/13 07:55:49;;;;;;;1.00;0.90;;;26.20;99.90;;;;;;5050401;28;20203;-75
2023/08/13 07:58:19;;;;;;;2.08;1.88;;;26.10;99.90;;;;;;5052430;28;20685;-75
2023/08/13 08:00:47;;;;;;;2.80;1.55;;;26.00;99.90;;;;;;5045717;28;20203;-75
2023/08/13 08:03:15;;;;;;;1.50;1.05;;;26.20;99.90;;;;;;5052959;28;20203;-75
2023/08/13 08:05:42;;;;;;;2.13;1.38;;;26.20;99.90;;;;;;5052279;28;20257;-74
2023/08/13 08:08:10;;;;;;;1.90;1.33;;;26.30;99.90;;;;;;5056801;28;20202;-75
2023/08/13 08:10:37;;;;;;;1.92;1.35;;;25.90;99.90;;;;;;5054599;28;20241;-75
2023/08/13 08:13:04;;;;;;;2.30;1.17;;;26.30;99.90;;;;;;5050312;28;20320;-75
2023/08/13 08:15:34;;;;;;;1.42;1.33;;;26.70;99.90;;;;;;5050511;28;20235;-73
2023/08/13 08:18:01;;;;;;;3.40;1.90;;;26.90;99.90;;;;;;5045856;28;20221;-75
2023/08/13 08:20:28;;;;;;;2.33;1.98;;;26.40;99.90;;;;;;5052262;28;20235;-74
2023/08/13 08:22:55;;;;;;;2.40;1.75;;;26.00;99.90;;;;;;5051360;28;20758;-72
2023/08/13 08:25:22;;;;;;;2.78;1.58;;;26.10;99.90;;;;;;5051930;28;20242;-75
2023/08/13 08:27:49;;;;;;;3.00;1.25;;;26.60;99.90;;;;;;5051677;28;20273;-73
2023/08/13 08:30:16;;;;;;;2.03;1.33;;;26.80;99.90;;;;;;5051706;28;20751;-72
2023/08/13 08:32:44;;;;;;;1.85;1.50;;;26.80;99.90;;;;;;5052123;28;20254;-75
2023/08/13 08:35:11;;;;;;;1.77;1.40;;;26.70;99.90;;;;;;5051711;28;20312;-76
2023/08/13 08:37:38;;;;;;;2.35;1.42;;;26.70;99.90;;;;;;5051262;28;20250;-75
2023/08/13 08:40:06;;;;;;;2.45;1.70;;;26.50;99.90;;;;;;5051006;28;20242;-75
2023/08/13 08:42:33;;;;;;;3.13;1.77;;;26.60;99.90;;;;;;5052129;28;20238;-76
2023/08/13 08:45:00;;;;;;;1.50;1.40;;;26.80;99.90;;;;;;5050177;28;20246;-75
2023/08/13 08:47:28;;;;;;;1.35;1.25;;;27.00;99.90;;;;;;5050062;28;20241;-75
2023/08/13 08:49:56;;;;;;;2.15;1.40;;;27.30;99.90;;;;;;5049881;28;20301;-75
2023/08/13 08:52:23;;;;;;;2.22;1.70;;;27.90;99.90;;;;;;5038880;28;20261;-76
2023/08/13 08:54:50;;;;;;;2.60;1.50;;;28.30;99.90;;;;;;5051443;28;20234;-77
2023/08/13 08:57:18;;;;;;;2.13;1.40;;;28.20;99.90;;;;;;5051593;28;20225;-76
2023/08/13 08:59:45;;;;;;;2.10;1.48;;;28.30;99.90;;;;;;5052169;28;20245;-76
2023/08/13 09:02:13;;;;;;;1.92;1.83;;;28.30;99.90;;;;;;5051881;28;20268;-75
2023/08/13 09:04:40;;;;;;;2.13;1.58;;;28.40;99.90;;;;;;5051999;28;20214;-77
2023/08/13 09:07:08;;;;;;;3.75;2.22;;;28.40;99.90;;;;;;5050798;28;20336;-77
2023/08/13 09:09:36;;;;;;;2.45;2.03;;;28.70;99.90;;;;;;5051804;28;20294;-76
2023/08/13 09:12:03;;;;;;;2.55;1.70;;;29.30;99.90;;;;;;5043466;28;20235;-75
2023/08/13 09:14:31;;;;;;;2.72;1.73;;;29.60;99.90;;;;;;5051573;28;20203;-76
2023/08/13 09:16:58;;;;;;;1.83;1.30;;;30.10;99.90;;;;;;5051055;28;20256;-77
2023/08/13 09:19:27;;;;;;;2.13;1.77;;;29.50;99.90;;;;;;5051443;28;20674;-76
2023/08/13 09:21:55;;;;;;;3.97;1.67;;;29.70;99.90;;;;;;5051013;28;20288;-77
2023/08/13 09:24:33;;;;;;;1.88;1.58;;;30.70;99.90;;;;;;5051134;28;20210;-75
2023/08/13 09:27:01;;;;;;;1.98;1.55;;;30.50;99.90;;;;;;5050490;28;20314;-77
2023/08/13 09:29:29;;;;;;;2.05;1.23;;;30.60;99.90;;;;;;5051182;28;20712;-77
2023/08/13 09:31:57;;;;;;;3.05;1.90;;;30.60;99.90;;;;;;5050728;28;20293;-77
2023/08/13 09:34:25;;;;;;;3.30;1.73;;;31.30;99.90;;;;;;5051492;28;20242;-76
2023/08/13 09:36:53;;;;;;;1.75;1.35;;;34.30;99.90;;;;;;5050787;28;20241;-76
2023/08/13 09:39:21;;;;;;;2.40;1.60;;;37.70;99.90;;;;;;5051074;28;20210;-77
2023/08/13 09:41:50;;;;;;;3.60;1.80;;;38.10;99.90;;;;;;5050426;28;20666;-77
2023/08/13 09:44:20;;;;;;;3.80;1.92;;;37.90;99.90;;;;;;5050895;28;20752;-77
2023/08/13 09:46:52;;;;;;;1.85;1.75;;;39.80;99.90;;;;;;5050169;28;20280;-74
2023/08/13 09:49:19;;;;;;;1.65;1.20;;;40.50;99.90;;;;;;5051084;28;20256;-78
2023/08/13 09:51:49;;;;;;;2.78;1.80;;;38.90;99.90;;;;;;5050818;28;20241;-77
2023/08/13 09:54:25;;;;;;;2.38;1.73;;;37.50;99.90;;;;;;5050737;28;20224;-77
2023/08/13 09:56:59;;;;;;;5.47;1.58;;;37.80;99.90;;;;;;5050081;28;20233;-78
2023/08/13 09:59:27;;;;;;;3.78;1.55;;;39.40;99.90;;;;;;5050826;28;20217;-78
2023/08/13 10:01:55;;;;;;;1.58;1.42;;;41.10;99.90;;;;;;5050074;28;20686;-78
2023/08/13 10:04:23;;;;;;;1.95;1.83;;;42.10;99.90;;;;;;5050695;28;20237;-77
2023/08/13 10:06:52;;;;;;;1.70;1.58;;;39.60;99.90;;;;;;5050316;28;20313;-78
2023/08/13 10:09:19;;;;;;;3.33;1.63;;;37.40;99.90;;;;;;5050277;28;20701;-75
2023/08/13 10:11:46;;;;;;;3.22;1.58;;;36.80;99.90;;;;;;5050799;28;20202;-77
2023/08/13 10:14:14;;;;;;;2.55;1.92;;;39.90;99.90;;;;;;5050686;28;20202;-76
2023/08/13 10:16:42;;;;;;;3.70;1.75;;;42.10;99.90;;;;;;5050864;28;20271;-74
2023/08/13 10:19:10;;;;;;;2.28;1.63;;;42.80;99.90;;;;;;5050244;28;20210;-75
2023/08/13 10:21:38;;;;;;;2.60;1.50;;;43.90;99.90;;;;;;5050501;28;20256;-74
2023/08/13 10:24:09;;;;;;;3.33;1.95;;;42.10;99.90;;;;;;5049637;28;20268;-75
2023/08/13 10:26:36;;;;;;;3.65;2.25;;;40.20;99.90;;;;;;5050399;28;20242;-72
2023/08/13 10:29:16;;;;;;;2.70;1.88;;;39.70;99.90;;;;;;5050109;28;20236;-75
2023/08/13 10:31:49;;;;;;;2.03;1.83;;;37.40;99.90;;;;;;5050411;28;20206;-75
2023/08/13 10:34:17;;;;;;;1.73;1.55;;;34.70;99.90;;;;;;5050221;28;20299;-75
2023/08/13 10:36:49;;;;;;;2.58;1.63;;;33.40;99.90;;;;;;5050355;28;20622;-74
2023/08/13 10:39:33;;;;;;;1.92;1.80;;;32.10;99.90;;;;;;5050268;28;20264;-74
2023/08/13 10:42:01;;;;;;;4.45;1.88;;;31.00;99.90;;;;;;5052325;28;20202;-75
2023/08/13 10:44:31;;;;;;;5.07;2.08;;;30.70;99.90;;;;;;5054311;28;20684;-76
2023/08/13 10:46:58;;;;;;;2.10;1.73;;;31.00;99.90;;;;;;5052663;28;20261;-74
2023/08/13 10:49:26;;;;;;;2.75;1.80;;;30.70;99.90;;;;;;5053976;28;20238;-75
2023/08/13 10:51:54;;;;;;;3.47;2.22;;;31.10;99.90;;;;;;5053465;28;20208;-75
2023/08/13 10:54:24;;;;;;;1.70;1.60;;;31.30;99.90;;;;;;5054186;28;20216;-76
2023/08/13 10:56:57;;;;;;;3.05;2.15;;;31.50;99.90;;;;;;5053600;28;21285;-75
2023/08/13 10:59:33;;;;;;;2.33;1.85;;;31.60;99.90;;;;;;5052258;28;20624;-75
2023/08/13 11:02:14;;;;;;;2.13;1.90;;;31.60;99.90;;;;;;5053714;28;21963;-79
2023/08/13 11:04:42;;;;;;;3.55;2.25;;;31.30;99.90;;;;;;5054050;28;20206;-77
2023/08/13 11:07:10;;;;;;;2.45;1.77;;;31.50;99.90;;;;;;5049722;28;20283;-77
2023/08/13 11:09:37;;;;;;;3.15;2.33;;;31.40;99.90;;;;;;5053306;28;20213;-77
2023/08/13 11:12:06;;;;;;;2.72;1.88;;;31.60;99.90;;;;;;5052078;28;20689;-77
2023/08/13 11:14:35;;;;;;;1.73;1.63;;;31.30;99.90;;;;;;5045035;28;20206;-77
2023/08/13 11:17:02;;;;;;;2.65;2.22;;;31.40;99.90;;;;;;5053244;28;20257;-76
2023/08/13 11:19:29;;;;;;;3.53;2.55;;;31.70;99.90;;;;;;5053568;28;20661;-77
2023/08/13 11:21:56;;;;;;;3.05;2.50;;;31.90;99.90;;;;;;5052955;28;20225;-75
2023/08/13 11:24:24;;;;;;;4.78;2.35;;;32.00;99.90;;;;;;5058462;28;20248;-76
2023/08/13 11:26:52;;;;;;;2.55;2.35;;;31.70;99.90;;;;;;5056728;28;20233;-76
2023/08/13 11:29:22;;;;;;;3.03;2.53;;;31.50;99.90;;;;;;5053715;28;20260;-76
2023/08/13 11:31:50;;;;;;;3.70;2.45;;;31.80;99.90;;;;;;5052958;28;20572;-75
2023/08/13 11:34:18;;;;;;;2.67;2.47;;;32.10;99.90;;;;;;5053410;28;20263;-76
2023/08/13 11:36:45;;;;;;;2.55;2.28;;;32.40;99.90;;;;;;5053054;28;20198;-73
2023/08/13 11:39:13;;;;;;;3.17;2.72;;;32.00;99.90;;;;;;5053777;28;20214;-77
2023/08/13 11:41:40;;;;;;;2.45;2.25;;;31.80;99.90;;;;;;5053378;28;20233;-77
2023/08/13 11:44:11;;;;;;;2.90;1.75;;;31.80;99.90;;;;;;5053209;28;20250;-76
2023/08/13 11:46:53;;;;;;;3.08;2.05;;;32.30;99.90;;;;;;5053282;28;20292;-77
2023/08/13 11:49:20;;;;;;;3.35;2.20;;;32.60;99.90;;;;;;5053208;28;20301;-77
2023/08/13 11:51:47;;;;;;;2.97;2.28;;;32.90;99.90;;;;;;5052487;28;20241;-74
2023/08/13 11:54:14;;;;;;;4.60;2.92;;;33.10;99.90;;;;;;5052117;28;20214;-74
2023/08/13 11:56:41;;;;;;;2.20;2.00;;;33.20;99.90;;;;;;5053297;28;20238;-77
2023/08/13 11:59:08;;;;;;;2.45;2.15;;;32.70;99.90;;;;;;5052830;28;20237;-73
2023/08/13 12:01:35;;;;;;;2.95;1.83;;;32.10;99.90;;;;;;5052939;28;20253;-76
2023/08/13 12:04:05;;;;;;;2.80;2.05;;;31.50;99.90;;;;;;5052390;28;20206;-77
2023/08/13 12:06:35;;;;;;;5.60;2.95;;;31.60;99.90;;;;;;5052653;28;20578;-78
2023/08/13 12:09:03;;;;;;;3.05;2.30;;;31.60;99.90;;;;;;5052161;28;20233;-76
2023/08/13 12:11:30;;;;;;;3.92;2.67;;;31.70;99.90;;;;;;5052258;28;20582;-78
2023/08/13 12:14:03;;;;;;;3.72;2.50;;;32.00;99.90;;;;;;5052038;28;20303;-74
2023/08/13 12:16:30;;;;;;;4.60;3.05;;;31.90;99.90;;;;;;5052291;28;20256;-75
2023/08/13 12:18:58;;;;;;;4.03;2.53;;;31.90;99.90;;;;;;5050853;28;20578;-77
2023/08/13 12:21:26;;;;;;;3.95;2.75;;;32.60;99.90;;;;;;5048697;28;20212;-76
2023/08/13 12:23:53;;;;;;;3.60;2.47;;;33.40;99.90;;;;;;5052823;28;20583;-76
2023/08/13 12:26:21;;;;;;;2.58;2.08;;;33.50;99.90;;;;;;5052195;28;20276;-76
2023/08/13 12:28:50;;;;;;;2.72;2.40;;;33.10;99.90;;;;;;5051791;28;20315;-74
2023/08/13 12:31:18;;;;;;;2.58;2.38;;;33.00;99.90;;;;;;5051751;28;20202;-75
2023/08/13 12:33:45;;;;;;;2.17;2.05;;;33.10;99.90;;;;;;5051890;28;20209;-75
2023/08/13 12:36:12;;;;;;;3.42;2.28;;;33.10;99.90;;;;;;5052144;28;20209;-74
2023/08/13 12:38:41;;;;;;;3.50;2.50;;;33.50;99.90;;;;;;5052072;28;20608;-75
2023/08/13 12:41:08;;;;;;;3.47;3.10;;;33.40;99.90;;;;;;5047705;28;20664;-75
2023/08/13 12:43:36;;;;;;;3.60;2.28;;;33.30;99.90;;;;;;5052015;28;20206;-77
2023/08/13 12:46:05;;;;;;;2.65;2.45;;;33.30;99.90;;;;;;5051940;28;20202;-75
2023/08/13 12:48:32;;;;;;;2.85;2.45;;;33.20;99.90;;;;;;5051223;28;20233;-77
2023/08/13 12:50:59;;;;;;;4.00;3.15;;;32.70;99.90;;;;;;5051962;28;20211;-76